createdAt,value
2016-12-16T00:00:48.316Z,1027.64
2016-12-16T00:01:58.579Z,1027.65
2016-12-16T00:03:08.873Z,1027.65
2016-12-16T00:04:19.155Z,1027.63
2016-12-16T00:05:29.107Z,1027.62
2016-12-16T00:06:38.455Z,1027.62
2016-12-16T00:07:48.730Z,1027.64
2016-12-16T00:08:58.393Z,1027.62
2016-12-16T00:10:08.352Z,1027.57
2016-12-16T00:11:18.329Z,1027.64
2016-12-16T00:12:28.630Z,1027.64
2016-12-16T00:13:38.897Z,1027.63
2016-12-16T00:14:49.169Z,1027.61
2016-12-16T00:15:58.819Z,1027.59
2016-12-16T00:17:08.775Z,1027.63
2016-12-16T00:18:19.085Z,1027.61
2016-12-16T00:19:29.043Z,1027.59
2016-12-16T00:20:39.015Z,1027.64
2016-12-16T00:21:48.980Z,1027.61
2016-12-16T00:22:59.258Z,1027.58
2016-12-16T00:24:09.233Z,1027.58
2016-12-16T00:25:19.203Z,1027.58
2016-12-16T00:26:29.499Z,1027.57
2016-12-16T00:27:39.767Z,1027.58
2016-12-16T00:28:50.061Z,1027.58
2016-12-16T00:30:00.343Z,1027.56
2016-12-16T00:31:10.628Z,1027.61
2016-12-16T00:32:20.596Z,1027.58
2016-12-16T00:33:30.253Z,1027.61
2016-12-16T00:34:40.525Z,1027.62
2016-12-16T00:35:50.788Z,1027.64
2016-12-16T00:37:01.048Z,1027.69
2016-12-16T00:38:11.342Z,1027.67
2016-12-16T00:39:21.306Z,1027.65
2016-12-16T00:40:30.647Z,1027.7
2016-12-16T00:41:40.922Z,1027.71
2016-12-16T00:42:50.614Z,1027.71
2016-12-16T00:44:00.269Z,1027.72
2016-12-16T00:45:09.927Z,1027.71
2016-12-16T00:46:19.588Z,1027.71
2016-12-16T00:47:29.540Z,1027.73
2016-12-16T00:48:39.530Z,1027.72
2016-12-16T00:49:49.485Z,1027.73
2016-12-16T00:50:59.140Z,1027.74
2016-12-16T00:52:09.408Z,1027.75
2016-12-16T00:53:19.370Z,1027.75
2016-12-16T00:54:29.636Z,1027.72
2016-12-16T00:55:39.597Z,1027.72
2016-12-16T00:56:49.561Z,1027.73
2016-12-16T00:57:59.834Z,1027.75
2016-12-16T00:59:09.504Z,1027.75
2016-12-16T01:00:19.783Z,1027.77
2016-12-16T01:01:30.075Z,1027.72
2016-12-16T01:02:40.342Z,1027.8
2016-12-16T01:03:50.314Z,1027.75
2016-12-16T01:04:59.959Z,1027.81
2016-12-16T01:06:09.920Z,1027.74
2016-12-16T01:07:20.196Z,1027.78
2016-12-16T01:08:30.474Z,1027.76
2016-12-16T01:09:40.755Z,1027.8
2016-12-16T01:10:51.022Z,1027.74
2016-12-16T01:12:01.345Z,1027.76
2016-12-16T01:13:11.610Z,1027.79
2016-12-16T01:14:21.889Z,1027.79
2016-12-16T01:15:32.177Z,1027.77
2016-12-16T01:16:42.461Z,1027.8
2016-12-16T01:17:52.733Z,1027.78
2016-12-16T01:19:02.692Z,1027.8
2016-12-16T01:20:12.042Z,1027.79
2016-12-16T01:21:21.997Z,1027.77
2016-12-16T01:22:31.966Z,1027.79
2016-12-16T01:23:41.918Z,1027.82
2016-12-16T01:24:51.876Z,1027.88
2016-12-16T01:26:02.237Z,1027.82
2016-12-16T01:27:12.202Z,1027.83
2016-12-16T01:28:22.493Z,1027.89
2016-12-16T01:29:32.445Z,1027.82
2016-12-16T01:30:42.394Z,1027.82
2016-12-16T01:31:52.353Z,1027.77
2016-12-16T01:33:02.634Z,1027.81
2016-12-16T01:34:12.903Z,1027.75
2016-12-16T01:35:22.868Z,1027.77
2016-12-16T01:36:32.208Z,1027.73
2016-12-16T01:37:42.483Z,1027.74
2016-12-16T01:38:52.433Z,1027.78
2016-12-16T01:40:02.691Z,1027.78
2016-12-16T01:41:12.964Z,1027.77
2016-12-16T01:42:23.238Z,1027.76
2016-12-16T01:43:33.511Z,1027.74
2016-12-16T01:44:43.782Z,1027.75
2016-12-16T01:45:54.202Z,1027.81
2016-12-16T01:47:04.163Z,1027.79
2016-12-16T01:48:14.502Z,1027.85
2016-12-16T01:49:24.474Z,1027.82
2016-12-16T01:50:34.128Z,1027.84
2016-12-16T01:51:43.465Z,1027.81
2016-12-16T01:52:53.734Z,1027.79
2016-12-16T01:54:03.693Z,1027.76
2016-12-16T01:55:13.967Z,1027.72
2016-12-16T01:56:23.302Z,1027.72
2016-12-16T01:57:33.718Z,1027.69
2016-12-16T01:58:43.696Z,1027.74
2016-12-16T01:59:53.654Z,1027.76
2016-12-16T02:01:03.929Z,1027.75
2016-12-16T02:02:14.233Z,1027.77
2016-12-16T02:03:24.185Z,1027.76
2016-12-16T02:04:34.138Z,1027.74
2016-12-16T02:05:44.111Z,1027.75
2016-12-16T02:06:54.377Z,1027.71
2016-12-16T02:08:04.042Z,1027.78
2016-12-16T02:09:14.325Z,1027.75
2016-12-16T02:10:24.742Z,1027.77
2016-12-16T02:11:34.771Z,1027.76
2016-12-16T02:12:44.739Z,1027.77
2016-12-16T02:13:55.014Z,1027.71
2016-12-16T02:15:04.975Z,1027.75
2016-12-16T02:16:15.235Z,1027.75
2016-12-16T02:17:25.187Z,1027.71
2016-12-16T02:18:35.174Z,1027.73
2016-12-16T02:19:45.139Z,1027.73
2016-12-16T02:20:55.110Z,1027.74
2016-12-16T02:22:05.078Z,1027.76
2016-12-16T02:23:15.046Z,1027.74
2016-12-16T02:24:24.704Z,1027.73
2016-12-16T02:25:34.995Z,1027.76
2016-12-16T02:26:45.274Z,1027.77
2016-12-16T02:27:55.273Z,1027.75
2016-12-16T02:29:05.545Z,1027.74
2016-12-16T02:30:15.494Z,1027.73
2016-12-16T02:31:25.763Z,1027.77
2016-12-16T02:32:35.747Z,1027.78
2016-12-16T02:33:45.756Z,1027.77
2016-12-16T02:34:55.411Z,1027.8
2016-12-16T02:36:05.379Z,1027.76
2016-12-16T02:37:15.632Z,1027.74
2016-12-16T02:38:25.593Z,1027.72
2016-12-16T02:39:35.587Z,1027.76
2016-12-16T02:40:45.859Z,1027.8
2016-12-16T02:41:56.134Z,1027.81
2016-12-16T02:43:06.124Z,1027.84
2016-12-16T02:44:15.468Z,1027.85
2016-12-16T02:45:25.126Z,1027.85
2016-12-16T02:46:35.404Z,1027.85
2016-12-16T02:47:45.369Z,1027.84
2016-12-16T02:48:55.637Z,1027.86
2016-12-16T02:50:05.631Z,1027.88
2016-12-16T02:51:15.890Z,1027.88
2016-12-16T02:52:25.855Z,1027.86
2016-12-16T02:53:36.118Z,1027.8
2016-12-16T02:54:46.380Z,1027.83
2016-12-16T02:55:56.653Z,1027.84
2016-12-16T02:57:06.918Z,1027.82
2016-12-16T02:58:16.883Z,1027.81
2016-12-16T02:59:27.011Z,1027.77
2016-12-16T03:00:36.979Z,1027.82
2016-12-16T03:01:46.943Z,1027.84
2016-12-16T03:02:57.209Z,1027.78
2016-12-16T03:04:07.170Z,1027.77
2016-12-16T03:05:17.436Z,1027.81
2016-12-16T03:06:27.391Z,1027.78
2016-12-16T03:07:37.663Z,1027.76
2016-12-16T03:08:47.640Z,1027.79
2016-12-16T03:09:57.910Z,1027.77
2016-12-16T03:11:07.865Z,1027.78
2016-12-16T03:12:17.827Z,1027.78
2016-12-16T03:13:28.115Z,1027.78
2016-12-16T03:14:38.384Z,1027.77
2016-12-16T03:15:48.031Z,1027.84
2016-12-16T03:16:58.012Z,1027.83
2016-12-16T03:18:08.277Z,1027.83
2016-12-16T03:19:18.236Z,1027.81
2016-12-16T03:20:28.492Z,1027.79
2016-12-16T03:21:38.448Z,1027.77
2016-12-16T03:22:48.707Z,1027.77
2016-12-16T03:23:58.675Z,1027.75
2016-12-16T03:25:08.633Z,1027.68
2016-12-16T03:26:18.911Z,1027.7
2016-12-16T03:27:28.863Z,1027.62
2016-12-16T03:28:38.813Z,1027.64
2016-12-16T03:29:49.084Z,1027.64
2016-12-16T03:30:59.356Z,1027.68
2016-12-16T03:32:09.321Z,1027.64
2016-12-16T03:33:19.652Z,1027.67
2016-12-16T03:34:29.615Z,1027.63
2016-12-16T03:35:39.567Z,1027.66
2016-12-16T03:36:49.219Z,1027.62
2016-12-16T03:37:59.487Z,1027.6
2016-12-16T03:39:09.440Z,1027.61
2016-12-16T03:40:19.704Z,1027.61
2016-12-16T03:41:29.659Z,1027.61
2016-12-16T03:42:39.682Z,1027.64
2016-12-16T03:43:49.346Z,1027.6
2016-12-16T03:44:59.304Z,1027.65
2016-12-16T03:46:09.574Z,1027.61
2016-12-16T03:47:19.538Z,1027.61
2016-12-16T03:48:29.798Z,1027.67
2016-12-16T03:49:40.059Z,1027.64
2016-12-16T03:50:50.331Z,1027.62
2016-12-16T03:52:00.283Z,1027.64
2016-12-16T03:53:10.549Z,1027.61
2016-12-16T03:54:20.956Z,1027.61
2016-12-16T03:55:30.948Z,1027.65
2016-12-16T03:56:41.212Z,1027.68
2016-12-16T03:57:51.506Z,1027.69
2016-12-16T03:59:01.774Z,1027.74
2016-12-16T04:00:11.429Z,1027.7
2016-12-16T04:01:21.707Z,1027.67
2016-12-16T04:02:31.697Z,1027.65
2016-12-16T04:03:41.653Z,1027.66
2016-12-16T04:04:51.608Z,1027.67
2016-12-16T04:06:01.250Z,1027.68
2016-12-16T04:07:11.512Z,1027.65
2016-12-16T04:08:21.470Z,1027.63
2016-12-16T04:09:31.429Z,1027.71
2016-12-16T04:10:41.697Z,1027.7
2016-12-16T04:11:51.960Z,1027.7
2016-12-16T04:13:01.608Z,1027.66
2016-12-16T04:14:11.566Z,1027.68
2016-12-16T04:15:21.870Z,1027.7
2016-12-16T04:16:32.158Z,1027.72
2016-12-16T04:17:42.123Z,1027.72
2016-12-16T04:18:52.382Z,1027.77
2016-12-16T04:20:02.347Z,1027.72
2016-12-16T04:21:12.616Z,1027.76
2016-12-16T04:22:22.274Z,1027.77
2016-12-16T04:23:32.539Z,1027.78
2016-12-16T04:24:43.042Z,1027.74
2016-12-16T04:25:53.000Z,1027.76
2016-12-16T04:27:03.276Z,1027.75
2016-12-16T04:28:13.247Z,1027.73
2016-12-16T04:29:23.205Z,1027.75
2016-12-16T04:30:33.220Z,1027.76
2016-12-16T04:31:43.172Z,1027.77
2016-12-16T04:32:53.438Z,1027.79
2016-12-16T04:34:03.390Z,1027.77
2016-12-16T04:35:13.355Z,1027.81
2016-12-16T04:36:23.009Z,1027.83
2016-12-16T04:37:32.971Z,1027.79
2016-12-16T04:38:43.237Z,1027.76
2016-12-16T04:39:52.578Z,1027.8
2016-12-16T04:41:02.219Z,1027.78
2016-12-16T04:42:12.485Z,1027.78
2016-12-16T04:43:22.443Z,1027.8
2016-12-16T04:44:32.722Z,1027.84
2016-12-16T04:45:42.693Z,1027.83
2016-12-16T04:46:52.661Z,1027.83
2016-12-16T04:48:02.938Z,1027.79
2016-12-16T04:49:12.913Z,1027.82
2016-12-16T04:50:23.188Z,1027.78
2016-12-16T04:51:33.148Z,1027.82
2016-12-16T04:52:43.422Z,1027.8
2016-12-16T04:53:53.380Z,1027.82
2016-12-16T04:55:03.342Z,1027.8
2016-12-16T04:56:13.304Z,1027.78
2016-12-16T04:57:23.588Z,1027.83
2016-12-16T04:58:33.851Z,1027.8
2016-12-16T04:59:43.515Z,1027.82
2016-12-16T05:00:53.467Z,1027.81
2016-12-16T05:02:03.432Z,1027.83
2016-12-16T05:03:13.419Z,1027.85
2016-12-16T05:04:23.726Z,1027.87
2016-12-16T05:05:34.047Z,1027.88
2016-12-16T05:06:44.007Z,1027.87
2016-12-16T05:07:54.363Z,1027.87
2016-12-16T05:09:04.667Z,1027.91
2016-12-16T05:10:14.936Z,1027.91
2016-12-16T05:11:24.271Z,1027.92
2016-12-16T05:12:33.928Z,1027.91
2016-12-16T05:13:44.197Z,1027.9
2016-12-16T05:14:54.155Z,1027.89
2016-12-16T05:16:04.433Z,1027.85
2016-12-16T05:17:14.709Z,1027.89
2016-12-16T05:18:24.373Z,1027.86
2016-12-16T05:19:34.020Z,1027.87
2016-12-16T05:20:44.273Z,1027.87
2016-12-16T05:21:54.555Z,1027.86
2016-12-16T05:23:04.833Z,1027.87
2016-12-16T05:24:15.096Z,1027.83
2016-12-16T05:25:25.048Z,1027.89
2016-12-16T05:26:35.024Z,1027.87
2016-12-16T05:27:45.302Z,1027.87
2016-12-16T05:28:54.951Z,1027.85
2016-12-16T05:30:05.221Z,1027.84
2016-12-16T05:31:15.176Z,1027.91
2016-12-16T05:32:25.447Z,1027.87
2016-12-16T05:33:35.406Z,1027.82
2016-12-16T05:34:45.368Z,1027.82
2016-12-16T05:35:55.634Z,1027.81
2016-12-16T05:37:05.278Z,1027.87
2016-12-16T05:38:15.228Z,1027.85
2016-12-16T05:39:25.188Z,1027.86
2016-12-16T05:40:35.148Z,1027.85
2016-12-16T05:41:45.111Z,1027.9
2016-12-16T05:42:54.763Z,1027.89
2016-12-16T05:44:05.035Z,1027.91
2016-12-16T05:45:15.301Z,1027.93
2016-12-16T05:46:25.262Z,1027.98
2016-12-16T05:47:35.233Z,1027.96
2016-12-16T05:48:45.201Z,1027.94
2016-12-16T05:49:55.476Z,1027.97
2016-12-16T05:51:05.758Z,1027.97
2016-12-16T05:52:16.033Z,1027.93
2016-12-16T05:53:26.308Z,1027.92
2016-12-16T05:54:36.571Z,1027.93
2016-12-16T05:55:46.561Z,1027.92
2016-12-16T05:56:56.216Z,1027.93
2016-12-16T05:58:06.180Z,1027.95
2016-12-16T05:59:16.443Z,1027.95
2016-12-16T06:00:26.421Z,1027.96
2016-12-16T06:01:36.699Z,1027.94
2016-12-16T06:02:46.651Z,1027.97
2016-12-16T06:03:56.299Z,1027.95
2016-12-16T06:05:06.274Z,1027.94
2016-12-16T06:06:16.236Z,1027.93
2016-12-16T06:07:26.196Z,1027.96
2016-12-16T06:08:36.478Z,1027.93
2016-12-16T06:09:46.453Z,1027.93
2016-12-16T06:10:56.417Z,1027.91
2016-12-16T06:12:06.379Z,1027.91
2016-12-16T06:13:16.347Z,1027.88
2016-12-16T06:14:26.310Z,1027.89
2016-12-16T06:15:36.587Z,1027.94
2016-12-16T06:16:46.552Z,1027.91
2016-12-16T06:17:56.827Z,1027.95
2016-12-16T06:19:06.527Z,1027.95
2016-12-16T06:20:16.181Z,1027.94
2016-12-16T06:21:26.511Z,1027.93
2016-12-16T06:22:36.799Z,1027.91
2016-12-16T06:23:46.766Z,1027.92
2016-12-16T06:24:57.036Z,1027.95
2016-12-16T06:26:07.320Z,1027.94
2016-12-16T06:27:17.295Z,1027.96
2016-12-16T06:28:27.575Z,1027.93
2016-12-16T06:29:37.531Z,1027.95
2016-12-16T06:30:47.510Z,1027.94
2016-12-16T06:31:57.793Z,1027.93
2016-12-16T06:33:07.753Z,1027.96
2016-12-16T06:34:17.712Z,1027.98
2016-12-16T06:35:27.685Z,1027.99
2016-12-16T06:36:37.967Z,1028
2016-12-16T06:37:47.921Z,1028.03
2016-12-16T06:38:57.947Z,1028
2016-12-16T06:40:07.598Z,1028.02
2016-12-16T06:41:17.550Z,1028.05
2016-12-16T06:42:27.522Z,1028.03
2016-12-16T06:43:37.483Z,1028.08
2016-12-16T06:44:47.805Z,1028.05
2016-12-16T06:45:58.081Z,1028.04
2016-12-16T06:47:08.055Z,1028.04
2016-12-16T06:48:18.034Z,1028.06
2016-12-16T06:49:28.306Z,1028.06
2016-12-16T06:50:38.579Z,1028.04
2016-12-16T06:51:49.378Z,1027.97
2016-12-16T06:52:59.336Z,1028
2016-12-16T06:54:09.323Z,1027.98
2016-12-16T06:55:19.592Z,1027.97
2016-12-16T06:56:29.861Z,1028.01
2016-12-16T06:57:39.838Z,1027.96
2016-12-16T06:58:50.142Z,1027.99
2016-12-16T07:00:00.475Z,1027.99
2016-12-16T07:01:10.437Z,1028
2016-12-16T07:02:20.101Z,1027.99
2016-12-16T07:03:30.383Z,1028
2016-12-16T07:04:40.674Z,1028.05
2016-12-16T07:05:50.648Z,1028.03
2016-12-16T07:07:00.604Z,1028.07
2016-12-16T07:08:10.268Z,1028.03
2016-12-16T07:09:20.219Z,1028.01
2016-12-16T07:10:30.184Z,1027.98
2016-12-16T07:11:40.468Z,1028.02
2016-12-16T07:12:50.735Z,1028.03
2016-12-16T07:14:01.038Z,1028.02
2016-12-16T07:15:10.703Z,1027.99
2016-12-16T07:16:20.974Z,1028.01
2016-12-16T07:17:30.635Z,1028
2016-12-16T07:18:40.761Z,1027.95
2016-12-16T07:19:51.060Z,1028.02
2016-12-16T07:21:01.026Z,1028
2016-12-16T07:22:10.709Z,1028.02
2016-12-16T07:23:20.991Z,1028.03
2016-12-16T07:24:31.346Z,1028.06
2016-12-16T07:25:41.628Z,1028.06
2016-12-16T07:26:51.909Z,1028.07
2016-12-16T07:28:01.884Z,1028.08
2016-12-16T07:29:12.168Z,1028.13
2016-12-16T07:30:22.441Z,1028.1
2016-12-16T07:31:32.738Z,1028.14
2016-12-16T07:32:42.697Z,1028.13
2016-12-16T07:33:52.991Z,1028.12
2016-12-16T07:35:02.648Z,1028.14
2016-12-16T07:36:12.318Z,1028.18
2016-12-16T07:37:21.973Z,1028.16
2016-12-16T07:38:31.941Z,1028.17
2016-12-16T07:39:42.206Z,1028.17
2016-12-16T07:40:51.855Z,1028.15
2016-12-16T07:42:02.127Z,1028.15
2016-12-16T07:43:11.804Z,1028.16
2016-12-16T07:44:22.104Z,1028.15
2016-12-16T07:45:32.396Z,1028.17
2016-12-16T07:46:42.690Z,1028.14
2016-12-16T07:47:52.357Z,1028.17
2016-12-16T07:49:02.316Z,1028.15
2016-12-16T07:50:12.342Z,1028.16
2016-12-16T07:51:22.629Z,1028.18
2016-12-16T07:52:31.992Z,1028.21
2016-12-16T07:53:42.284Z,1028.23
2016-12-16T07:54:52.292Z,1028.25
2016-12-16T07:56:02.302Z,1028.25
2016-12-16T07:57:12.307Z,1028.31
2016-12-16T07:58:22.626Z,1028.33
2016-12-16T07:59:32.695Z,1028.31
2016-12-16T08:00:43.045Z,1028.34
2016-12-16T08:01:53.359Z,1028.32
2016-12-16T08:03:03.356Z,1028.35
2016-12-16T08:04:13.345Z,1028.34
2016-12-16T08:05:23.653Z,1028.32
2016-12-16T08:06:33.052Z,1028.35
2016-12-16T08:07:43.034Z,1028.34
2016-12-16T08:08:53.614Z,1028.36
2016-12-16T08:10:03.595Z,1028.39
2016-12-16T08:11:13.838Z,1028.39
2016-12-16T08:12:23.816Z,1028.39
2016-12-16T08:13:33.204Z,1028.38
2016-12-16T08:14:43.505Z,1028.4
2016-12-16T08:15:54.047Z,1028.38
2016-12-16T08:17:04.047Z,1028.42
2016-12-16T08:18:14.996Z,1028.41
2016-12-16T08:19:24.366Z,1028.4
2016-12-16T08:20:34.728Z,1028.45
2016-12-16T08:21:45.003Z,1028.42
2016-12-16T08:22:54.730Z,1028.47
2016-12-16T08:24:04.706Z,1028.49
2016-12-16T08:25:15.000Z,1028.49
2016-12-16T08:26:24.676Z,1028.45
2016-12-16T08:27:34.350Z,1028.53
2016-12-16T08:28:44.622Z,1028.52
2016-12-16T08:29:54.607Z,1028.53
2016-12-16T08:31:04.925Z,1028.49
2016-12-16T08:32:14.615Z,1028.56
2016-12-16T08:33:23.969Z,1028.57
2016-12-16T08:34:33.951Z,1028.53
2016-12-16T08:35:43.918Z,1028.53
2016-12-16T08:36:54.206Z,1028.53
2016-12-16T08:38:04.478Z,1028.5
2016-12-16T08:39:14.449Z,1028.53
2016-12-16T08:40:24.110Z,1028.54
2016-12-16T08:41:34.370Z,1028.51
2016-12-16T08:42:44.331Z,1028.43
2016-12-16T08:43:54.635Z,1028.49
2016-12-16T08:45:04.929Z,1028.48
2016-12-16T08:46:15.207Z,1028.52
2016-12-16T08:47:25.517Z,1028.52
2016-12-16T08:48:35.486Z,1028.48
2016-12-16T08:49:45.784Z,1028.55
2016-12-16T08:50:55.761Z,1028.54
2016-12-16T08:52:06.047Z,1028.56
2016-12-16T08:53:16.330Z,1028.58
2016-12-16T08:54:26.308Z,1028.55
2016-12-16T08:55:36.260Z,1028.57
2016-12-16T08:56:45.921Z,1028.55
2016-12-16T08:57:56.272Z,1028.53
2016-12-16T08:59:06.555Z,1028.51
2016-12-16T09:00:16.224Z,1028.5
2016-12-16T09:01:26.500Z,1028.5
2016-12-16T09:02:37.067Z,1028.44
2016-12-16T09:03:47.038Z,1028.43
2016-12-16T09:04:57.006Z,1028.47
2016-12-16T09:06:07.291Z,1028.43
2016-12-16T09:07:17.563Z,1028.4
2016-12-16T09:08:27.222Z,1028.41
2016-12-16T09:09:37.189Z,1028.42
2016-12-16T09:10:46.529Z,1028.45
2016-12-16T09:11:56.814Z,1028.44
2016-12-16T09:13:06.783Z,1028.44
2016-12-16T09:14:16.760Z,1028.45
2016-12-16T09:15:26.728Z,1028.45
2016-12-16T09:16:36.702Z,1028.47
2016-12-16T09:17:46.668Z,1028.38
2016-12-16T09:18:56.642Z,1028.46
2016-12-16T09:20:06.924Z,1028.42
2016-12-16T09:21:16.590Z,1028.41
2016-12-16T09:22:26.593Z,1028.43
2016-12-16T09:23:36.862Z,1028.46
2016-12-16T09:24:47.175Z,1028.44
2016-12-16T09:25:57.154Z,1028.43
2016-12-16T09:27:07.448Z,1028.42
2016-12-16T09:28:17.410Z,1028.42
2016-12-16T09:29:27.681Z,1028.41
2016-12-16T09:30:37.975Z,1028.37
2016-12-16T09:31:47.631Z,1028.41
2016-12-16T09:32:57.621Z,1028.38
2016-12-16T09:34:07.944Z,1028.42
2016-12-16T09:35:17.937Z,1028.4
2016-12-16T09:36:28.455Z,1028.44
2016-12-16T09:37:38.123Z,1028.4
2016-12-16T09:38:48.414Z,1028.39
2016-12-16T09:39:58.382Z,1028.39
2016-12-16T09:41:08.043Z,1028.41
2016-12-16T09:42:17.995Z,1028.4
2016-12-16T09:43:27.989Z,1028.39
2016-12-16T09:44:37.956Z,1028.39
2016-12-16T09:45:48.247Z,1028.38
2016-12-16T09:46:58.546Z,1028.39
2016-12-16T09:48:09.056Z,1028.36
2016-12-16T09:49:18.715Z,1028.42
2016-12-16T09:50:28.718Z,1028.41
2016-12-16T09:51:38.990Z,1028.36
2016-12-16T09:52:48.967Z,1028.32
2016-12-16T09:53:59.252Z,1028.38
2016-12-16T09:55:09.527Z,1028.36
2016-12-16T09:56:19.825Z,1028.34
2016-12-16T09:57:30.106Z,1028.33
2016-12-16T09:58:40.072Z,1028.33
2016-12-16T09:59:50.043Z,1028.36
2016-12-16T10:01:00.338Z,1028.34
2016-12-16T10:02:10.324Z,1028.38
2016-12-16T10:03:20.315Z,1028.35
2016-12-16T10:04:29.966Z,1028.35
2016-12-16T10:05:39.966Z,1028.39
2016-12-16T10:06:49.985Z,1028.4
2016-12-16T10:08:00.270Z,1028.4
2016-12-16T10:09:10.241Z,1028.41
2016-12-16T10:10:20.241Z,1028.39
2016-12-16T10:11:30.222Z,1028.39
2016-12-16T10:12:40.203Z,1028.38
2016-12-16T10:13:50.187Z,1028.37
2016-12-16T10:15:00.182Z,1028.36
2016-12-16T10:16:10.475Z,1028.37
2016-12-16T10:17:20.436Z,1028.31
2016-12-16T10:18:30.718Z,1028.36
2016-12-16T10:19:40.993Z,1028.38
2016-12-16T10:20:51.353Z,1028.37
2016-12-16T10:22:01.329Z,1028.37
2016-12-16T10:23:11.317Z,1028.34
2016-12-16T10:24:21.279Z,1028.38
2016-12-16T10:25:31.691Z,1028.36
2016-12-16T10:26:42.005Z,1028.34
2016-12-16T10:27:51.679Z,1028.28
2016-12-16T10:29:01.659Z,1028.38
2016-12-16T10:30:11.656Z,1028.32
2016-12-16T10:31:21.713Z,1028.33
2016-12-16T10:32:31.365Z,1028.31
2016-12-16T10:33:41.348Z,1028.28
2016-12-16T10:34:51.681Z,1028.3
2016-12-16T10:36:01.993Z,1028.3
2016-12-16T10:37:12.301Z,1028.32
2016-12-16T10:38:22.579Z,1028.35
2016-12-16T10:39:32.554Z,1028.37
2016-12-16T10:40:42.563Z,1028.4
2016-12-16T10:41:52.867Z,1028.42
2016-12-16T10:43:03.142Z,1028.39
2016-12-16T10:44:12.803Z,1028.44
2016-12-16T10:45:23.077Z,1028.44
2016-12-16T10:46:33.063Z,1028.43
2016-12-16T10:47:43.027Z,1028.44
2016-12-16T10:48:53.024Z,1028.43
2016-12-16T10:50:03.295Z,1028.41
2016-12-16T10:51:13.580Z,1028.45
2016-12-16T10:52:23.228Z,1028.45
2016-12-16T10:53:33.522Z,1028.36
2016-12-16T10:54:43.862Z,1028.34
2016-12-16T10:55:53.826Z,1028.38
2016-12-16T10:57:04.098Z,1028.32
2016-12-16T10:58:14.063Z,1028.32
2016-12-16T10:59:24.376Z,1028.35
2016-12-16T11:00:34.405Z,1028.35
2016-12-16T11:01:44.081Z,1028.34
2016-12-16T11:02:54.034Z,1028.34
2016-12-16T11:04:04.017Z,1028.33
2016-12-16T11:05:13.975Z,1028.35
2016-12-16T11:06:23.941Z,1028.32
2016-12-16T11:07:33.597Z,1028.33
2016-12-16T11:08:43.882Z,1028.37
2016-12-16T11:09:53.844Z,1028.38
2016-12-16T11:11:04.135Z,1028.31
2016-12-16T11:12:14.145Z,1028.31
2016-12-16T11:13:24.113Z,1028.37
2016-12-16T11:14:34.087Z,1028.29
2016-12-16T11:15:44.064Z,1028.34
2016-12-16T11:16:54.026Z,1028.31
2016-12-16T11:18:04.004Z,1028.26
2016-12-16T11:19:14.274Z,1028.26
2016-12-16T11:20:23.937Z,1028.28
2016-12-16T11:21:34.216Z,1028.3
2016-12-16T11:22:44.180Z,1028.31
2016-12-16T11:23:54.203Z,1028.28
2016-12-16T11:25:04.486Z,1028.29
2016-12-16T11:26:14.779Z,1028.28
2016-12-16T11:27:24.770Z,1028.26
2016-12-16T11:28:34.769Z,1028.22
2016-12-16T11:29:44.747Z,1028.22
2016-12-16T11:30:55.031Z,1028.27
2016-12-16T11:32:05.313Z,1028.24
2016-12-16T11:33:15.278Z,1028.22
2016-12-16T11:34:25.252Z,1028.24
2016-12-16T11:35:35.528Z,1028.23
2016-12-16T11:36:45.551Z,1028.26
2016-12-16T11:37:55.548Z,1028.28
2016-12-16T11:39:05.547Z,1028.24
2016-12-16T11:40:15.229Z,1028.23
2016-12-16T11:41:25.525Z,1028.2
2016-12-16T11:42:35.188Z,1028.18
2016-12-16T11:43:45.456Z,1028.16
2016-12-16T11:44:55.435Z,1028.15
2016-12-16T11:46:05.732Z,1028.12
2016-12-16T11:47:15.720Z,1028.13
2016-12-16T11:48:26.025Z,1028.19
2016-12-16T11:49:36.017Z,1028.15
2016-12-16T11:50:46.312Z,1028.12
2016-12-16T11:51:56.617Z,1028.13
2016-12-16T11:53:06.696Z,1028.15
2016-12-16T11:54:16.374Z,1028.16
2016-12-16T11:55:26.368Z,1028.17
2016-12-16T11:56:36.083Z,1028.15
2016-12-16T11:57:45.439Z,1028.12
2016-12-16T11:58:55.747Z,1028.2
2016-12-16T12:00:05.757Z,1028.17
2016-12-16T12:01:15.427Z,1028.18
2016-12-16T12:02:25.433Z,1028.16
2016-12-16T12:03:35.097Z,1028.13
2016-12-16T12:04:45.379Z,1028.14
2016-12-16T12:05:55.362Z,1028.12
2016-12-16T12:07:05.341Z,1028.11
2016-12-16T12:08:15.597Z,1028.12
2016-12-16T12:09:25.561Z,1028.1
2016-12-16T12:10:35.242Z,1028.17
2016-12-16T12:11:45.220Z,1028.08
2016-12-16T12:12:55.527Z,1028.08
2016-12-16T12:14:05.834Z,1028.11
2016-12-16T12:15:16.119Z,1028.11
2016-12-16T12:16:25.796Z,1028.11
2016-12-16T12:17:36.068Z,1028.15
2016-12-16T12:18:46.378Z,1028.15
2016-12-16T12:19:56.368Z,1028.19
2016-12-16T12:21:06.676Z,1028.2
2016-12-16T12:22:16.651Z,1028.22
2016-12-16T12:23:26.929Z,1028.21
2016-12-16T12:24:37.211Z,1028.2
2016-12-16T12:25:47.223Z,1028.21
2016-12-16T12:26:56.955Z,1028.17
2016-12-16T12:28:07.229Z,1028.18
2016-12-16T12:29:17.514Z,1028.23
2016-12-16T12:30:27.493Z,1028.13
2016-12-16T12:31:37.754Z,1028.16
2016-12-16T12:32:47.726Z,1028.16
2016-12-16T12:33:58.021Z,1028.15
2016-12-16T12:35:08.320Z,1028.13
2016-12-16T12:36:18.606Z,1028.12
2016-12-16T12:37:28.913Z,1028.11
2016-12-16T12:38:38.319Z,1028.09
2016-12-16T12:39:48.285Z,1028.1
2016-12-16T12:40:58.264Z,1028.1
2016-12-16T12:42:08.275Z,1028.11
2016-12-16T12:43:18.556Z,1028.1
2016-12-16T12:44:28.864Z,1028.08
2016-12-16T12:45:38.840Z,1028.16
2016-12-16T12:46:49.118Z,1028.14
2016-12-16T12:47:58.777Z,1028.12
2016-12-16T12:49:08.456Z,1028.09
2016-12-16T12:50:18.165Z,1028.13
2016-12-16T12:51:28.452Z,1028.13
2016-12-16T12:52:38.153Z,1028.12
2016-12-16T12:53:48.127Z,1028.07
2016-12-16T12:54:58.117Z,1028.06
2016-12-16T12:56:08.092Z,1028.08
2016-12-16T12:57:18.062Z,1028.03
2016-12-16T12:58:28.348Z,1028.03
2016-12-16T12:59:38.329Z,1028.01
2016-12-16T13:00:48.610Z,1028.02
2016-12-16T13:01:58.578Z,1028.03
2016-12-16T13:03:08.549Z,1028.04
2016-12-16T13:04:18.834Z,1028.06
2016-12-16T13:05:29.106Z,1028.06
2016-12-16T13:06:39.388Z,1028.09
2016-12-16T13:07:49.676Z,1028.07
2016-12-16T13:08:59.638Z,1028.03
2016-12-16T13:10:09.599Z,1028.1
2016-12-16T13:11:19.260Z,1028.1
2016-12-16T13:12:29.237Z,1028.1
2016-12-16T13:13:38.607Z,1028.09
2016-12-16T13:14:48.882Z,1028.1
2016-12-16T13:15:59.184Z,1028.12
2016-12-16T13:17:08.556Z,1028.1
2016-12-16T13:18:18.211Z,1028.15
2016-12-16T13:19:28.179Z,1028.16
2016-12-16T13:20:37.526Z,1028.17
2016-12-16T13:21:47.510Z,1028.2
2016-12-16T13:22:57.785Z,1028.23
2016-12-16T13:24:08.060Z,1028.2
2016-12-16T13:25:18.025Z,1028.22
2016-12-16T13:26:28.042Z,1028.22
2016-12-16T13:27:37.695Z,1028.19
2016-12-16T13:28:47.978Z,1028.16
2016-12-16T13:29:57.983Z,1028.13
2016-12-16T13:31:08.326Z,1028.15
2016-12-16T13:32:18.646Z,1028.12
2016-12-16T13:33:28.927Z,1028.13
2016-12-16T13:34:38.991Z,1028.13
2016-12-16T13:35:48.970Z,1028.06
2016-12-16T13:36:58.985Z,1028.08
2016-12-16T13:38:09.270Z,1028.09
2016-12-16T13:39:19.243Z,1028.13
2016-12-16T13:40:29.231Z,1028.12
2016-12-16T13:41:38.892Z,1028.2
2016-12-16T13:42:49.164Z,1028.19
2016-12-16T13:43:59.152Z,1028.21
2016-12-16T13:45:08.546Z,1028.2
2016-12-16T13:46:18.533Z,1028.21
2016-12-16T13:47:28.549Z,1028.23
2016-12-16T13:48:38.850Z,1028.21
2016-12-16T13:49:49.138Z,1028.21
2016-12-16T13:50:58.795Z,1028.2
2016-12-16T13:52:09.084Z,1028.26
2016-12-16T13:53:19.400Z,1028.24
2016-12-16T13:54:29.384Z,1028.25
2016-12-16T13:55:39.349Z,1028.26
2016-12-16T13:56:49.631Z,1028.32
2016-12-16T13:57:59.612Z,1028.31
2016-12-16T13:59:09.890Z,1028.35
2016-12-16T14:00:19.912Z,1028.35
2016-12-16T14:01:30.209Z,1028.36
2016-12-16T14:02:40.197Z,1028.34
2016-12-16T14:03:50.763Z,1028.34
2016-12-16T14:05:00.741Z,1028.33
2016-12-16T14:06:11.036Z,1028.32
2016-12-16T14:07:21.336Z,1028.28
2016-12-16T14:08:31.651Z,1028.28
2016-12-16T14:09:41.611Z,1028.3
2016-12-16T14:10:51.902Z,1028.3